sensor_id;sensor_type;location;lat;lon;timestamp;temperature;humidity
19200;DHT22;9732;52.498;5.408;2022-11-25T00:02:11;9.20;99.90
19200;DHT22;9732;52.498;5.408;2022-11-25T00:04:38;9.20;99.90
19200;DHT22;9732;52.498;5.408;2022-11-25T00:07:05;9.20;99.90
19200;DHT22;9732;52.498;5.408;2022-11-25T00:09:33;9.20;99.90
19200;DHT22;9732;52.498;5.408;2022-11-25T00:12:00;9.20;99.90
19200;DHT22;9732;52.498;5.408;2022-11-25T00:14:26;9.20;99.90
19200;DHT22;9732;52.498;5.408;2022-11-25T00:16:53;9.20;99.90
19200;DHT22;9732;52.498;5.408;2022-11-25T00:19:20;9.20;99.90
19200;DHT22;9732;52.498;5.408;2022-11-25T00:21:46;9.20;99.90
19200;DHT22;9732;52.498;5.408;2022-11-25T00:24:15;9.20;99.90
19200;DHT22;9732;52.498;5.408;2022-11-25T00:26:43;9.20;99.90
19200;DHT22;9732;52.498;5.408;2022-11-25T00:29:11;9.20;99.90
19200;DHT22;9732;52.498;5.408;2022-11-25T00:31:39;9.10;99.90
19200;DHT22;9732;52.498;5.408;2022-11-25T00:34:06;9.10;99.90
19200;DHT22;9732;52.498;5.408;2022-11-25T00:36:35;9.10;99.90
19200;DHT22;9732;52.498;5.408;2022-11-25T00:39:04;9.10;99.90
19200;DHT22;9732;52.498;5.408;2022-11-25T00:41:31;9.10;99.90
19200;DHT22;9732;52.498;5.408;2022-11-25T00:44:17;9.10;99.90
19200;DHT22;9732;52.498;5.408;2022-11-25T00:47:06;9.10;99.90
19200;DHT22;9732;52.498;5.408;2022-11-25T00:49:33;9.10;99.90
19200;DHT22;9732;52.498;5.408;2022-11-25T00:52:00;9.10;99.90
19200;DHT22;9732;52.498;5.408;2022-11-25T00:54:26;9.10;99.90
19200;DHT22;9732;52.498;5.408;2022-11-25T00:56:53;9.10;99.90
19200;DHT22;9732;52.498;5.408;2022-11-25T00:59:21;9.10;99.90
19200;DHT22;9732;52.498;5.408;2022-11-25T01:01:48;9.10;99.90
19200;DHT22;9732;52.498;5.408;2022-11-25T01:04:15;9.10;99.90
19200;DHT22;9732;52.498;5.408;2022-11-25T01:06:44;9.10;99.90
19200;DHT22;9732;52.498;5.408;2022-11-25T01:09:11;9.10;99.90
19200;DHT22;9732;52.498;5.408;2022-11-25T01:11:39;9.10;99.90
19200;DHT22;9732;52.498;5.408;2022-11-25T01:14:06;9.10;99.90
19200;DHT22;9732;52.498;5.408;2022-11-25T01:16:34;9.10;99.90
19200;DHT22;9732;52.498;5.408;2022-11-25T01:19:02;9.10;99.90
19200;DHT22;9732;52.498;5.408;2022-11-25T01:21:30;9.10;99.90
19200;DHT22;9732;52.498;5.408;2022-11-25T01:23:58;9.10;99.90
19200;DHT22;9732;52.498;5.408;2022-11-25T01:26:26;9.10;99.90
19200;DHT22;9732;52.498;5.408;2022-11-25T01:28:55;9.10;99.90
19200;DHT22;9732;52.498;5.408;2022-11-25T01:31:23;9.20;99.90
19200;DHT22;9732;52.498;5.408;2022-11-25T01:33:54;9.10;99.90
19200;DHT22;9732;52.498;5.408;2022-11-25T01:36:21;9.20;99.90
19200;DHT22;9732;52.498;5.408;2022-11-25T01:38:50;9.10;99.90
19200;DHT22;9732;52.498;5.408;2022-11-25T01:41:17;9.20;99.90
19200;DHT22;9732;52.498;5.408;2022-11-25T01:44:02;9.10;99.90
19200;DHT22;9732;52.498;5.408;2022-11-25T01:46:40;9.10;99.90
19200;DHT22;9732;52.498;5.408;2022-11-25T01:49:13;9.10;99.90
19200;DHT22;9732;52.498;5.408;2022-11-25T01:51:45;9.10;99.90
19200;DHT22;9732;52.498;5.408;2022-11-25T01:54:16;9.20;99.90
19200;DHT22;9732;52.498;5.408;2022-11-25T01:56:49;9.20;99.90
19200;DHT22;9732;52.498;5.408;2022-11-25T01:59:16;9.10;99.90
19200;DHT22;9732;52.498;5.408;2022-11-25T02:01:43;9.20;99.90
19200;DHT22;9732;52.498;5.408;2022-11-25T02:04:14;9.20;99.90
19200;DHT22;9732;52.498;5.408;2022-11-25T02:06:49;9.10;99.90
19200;DHT22;9732;52.498;5.408;2022-11-25T02:09:20;9.10;99.90
19200;DHT22;9732;52.498;5.408;2022-11-25T02:11:52;9.10;99.90
19200;DHT22;9732;52.498;5.408;2022-11-25T02:14:21;9.20;99.90
19200;DHT22;9732;52.498;5.408;2022-11-25T02:16:48;9.10;99.90
19200;DHT22;9732;52.498;5.408;2022-11-25T02:19:23;9.10;99.90
19200;DHT22;9732;52.498;5.408;2022-11-25T02:21:55;9.10;99.90
19200;DHT22;9732;52.498;5.408;2022-11-25T02:24:30;9.10;99.90
19200;DHT22;9732;52.498;5.408;2022-11-25T02:27:02;9.10;99.90
19200;DHT22;9732;52.498;5.408;2022-11-25T02:29:31;9.10;99.90
19200;DHT22;9732;52.498;5.408;2022-11-25T02:32:00;9.20;99.90
19200;DHT22;9732;52.498;5.408;2022-11-25T02:34:28;9.10;99.90
19200;DHT22;9732;52.498;5.408;2022-11-25T02:36:59;9.20;99.90
19200;DHT22;9732;52.498;5.408;2022-11-25T02:39:30;9.20;99.90
19200;DHT22;9732;52.498;5.408;2022-11-25T02:42:00;9.20;99.90
19200;DHT22;9732;52.498;5.408;2022-11-25T02:44:29;9.20;99.90
19200;DHT22;9732;52.498;5.408;2022-11-25T02:46:57;9.20;99.90
19200;DHT22;9732;52.498;5.408;2022-11-25T02:49:25;9.20;99.90
19200;DHT22;9732;52.498;5.408;2022-11-25T02:51:52;9.20;99.90
19200;DHT22;9732;52.498;5.408;2022-11-25T02:54:22;9.20;99.90
19200;DHT22;9732;52.498;5.408;2022-11-25T02:56:50;9.20;99.90
19200;DHT22;9732;52.498;5.408;2022-11-25T02:59:19;9.20;99.90
19200;DHT22;9732;52.498;5.408;2022-11-25T03:01:46;9.20;99.90
19200;DHT22;9732;52.498;5.408;2022-11-25T03:04:13;9.20;99.90
19200;DHT22;9732;52.498;5.408;2022-11-25T03:06:43;9.20;99.90
19200;DHT22;9732;52.498;5.408;2022-11-25T03:09:11;9.20;99.90
19200;DHT22;9732;52.498;5.408;2022-11-25T03:11:41;9.10;99.90
19200;DHT22;9732;52.498;5.408;2022-11-25T03:14:31;9.10;99.90
19200;DHT22;9732;52.498;5.408;2022-11-25T03:17:03;9.10;99.90
19200;DHT22;9732;52.498;5.408;2022-11-25T03:19:31;9.10;99.90
19200;DHT22;9732;52.498;5.408;2022-11-25T03:21:58;9.20;99.90
19200;DHT22;9732;52.498;5.408;2022-11-25T03:24:26;9.20;99.90
19200;DHT22;9732;52.498;5.408;2022-11-25T03:26:54;9.20;99.90
19200;DHT22;9732;52.498;5.408;2022-11-25T03:29:22;9.20;99.90
19200;DHT22;9732;52.498;5.408;2022-11-25T03:31:53;9.20;99.90
19200;DHT22;9732;52.498;5.408;2022-11-25T03:34:21;9.20;99.90
19200;DHT22;9732;52.498;5.408;2022-11-25T03:36:49;9.20;99.90
19200;DHT22;9732;52.498;5.408;2022-11-25T03:39:17;9.20;99.90
19200;DHT22;9732;52.498;5.408;2022-11-25T03:41:44;9.20;99.90
19200;DHT22;9732;52.498;5.408;2022-11-25T03:44:11;9.20;99.90
19200;DHT22;9732;52.498;5.408;2022-11-25T03:46:39;9.20;99.90
19200;DHT22;9732;52.498;5.408;2022-11-25T03:49:08;9.20;99.90
19200;DHT22;9732;52.498;5.408;2022-11-25T03:51:37;9.20;99.90
19200;DHT22;9732;52.498;5.408;2022-11-25T03:54:04;9.20;99.90
19200;DHT22;9732;52.498;5.408;2022-11-25T03:56:38;9.20;99.90
19200;DHT22;9732;52.498;5.408;2022-11-25T03:59:06;9.20;99.90
19200;DHT22;9732;52.498;5.408;2022-11-25T04:01:33;9.20;99.90
19200;DHT22;9732;52.498;5.408;2022-11-25T04:04:01;9.20;99.90
19200;DHT22;9732;52.498;5.408;2022-11-25T04:06:34;9.30;99.90
19200;DHT22;9732;52.498;5.408;2022-11-25T04:09:05;9.30;99.90
19200;DHT22;9732;52.498;5.408;2022-11-25T04:11:33;9.30;99.90
19200;DHT22;9732;52.498;5.408;2022-11-25T04:14:18;9.30;99.90
19200;DHT22;9732;52.498;5.408;2022-11-25T04:16:52;9.30;99.90
19200;DHT22;9732;52.498;5.408;2022-11-25T04:19:21;9.30;99.90
19200;DHT22;9732;52.498;5.408;2022-11-25T04:21:50;9.30;99.90
19200;DHT22;9732;52.498;5.408;2022-11-25T04:24:17;9.20;99.90
19200;DHT22;9732;52.498;5.408;2022-11-25T04:26:45;9.20;99.90
19200;DHT22;9732;52.498;5.408;2022-11-25T04:29:12;9.20;99.90
19200;DHT22;9732;52.498;5.408;2022-11-25T04:31:39;9.20;99.90
19200;DHT22;9732;52.498;5.408;2022-11-25T04:34:07;9.20;99.90
19200;DHT22;9732;52.498;5.408;2022-11-25T04:36:36;9.20;99.90
19200;DHT22;9732;52.498;5.408;2022-11-25T04:39:04;9.20;99.90
19200;DHT22;9732;52.498;5.408;2022-11-25T04:41:33;9.20;99.90
19200;DHT22;9732;52.498;5.408;2022-11-25T04:44:01;9.30;99.90
19200;DHT22;9732;52.498;5.408;2022-11-25T04:46:33;9.30;99.90
19200;DHT22;9732;52.498;5.408;2022-11-25T04:49:02;9.20;99.90
19200;DHT22;9732;52.498;5.408;2022-11-25T04:51:29;9.20;99.90
19200;DHT22;9732;52.498;5.408;2022-11-25T04:53:58;9.20;99.90
19200;DHT22;9732;52.498;5.408;2022-11-25T04:56:27;9.20;99.90
19200;DHT22;9732;52.498;5.408;2022-11-25T04:58:54;9.20;99.90
19200;DHT22;9732;52.498;5.408;2022-11-25T05:01:39;9.20;99.90
19200;DHT22;9732;52.498;5.408;2022-11-25T05:04:06;9.20;99.90
19200;DHT22;9732;52.498;5.408;2022-11-25T05:06:34;9.20;99.90
19200;DHT22;9732;52.498;5.408;2022-11-25T05:09:03;9.20;99.90
19200;DHT22;9732;52.498;5.408;2022-11-25T05:11:32;9.20;99.90
19200;DHT22;9732;52.498;5.408;2022-11-25T05:14:00;9.10;99.90
19200;DHT22;9732;52.498;5.408;2022-11-25T05:16:27;9.10;99.90
19200;DHT22;9732;52.498;5.408;2022-11-25T05:18:55;9.10;99.90
19200;DHT22;9732;52.498;5.408;2022-11-25T05:21:22;9.10;99.90
19200;DHT22;9732;52.498;5.408;2022-11-25T05:23:56;9.00;99.90
19200;DHT22;9732;52.498;5.408;2022-11-25T05:26:24;9.00;99.90
19200;DHT22;9732;52.498;5.408;2022-11-25T05:28:53;9.00;99.90
19200;DHT22;9732;52.498;5.408;2022-11-25T05:31:20;9.00;99.90
19200;DHT22;9732;52.498;5.408;2022-11-25T05:33:48;9.00;99.90
19200;DHT22;9732;52.498;5.408;2022-11-25T05:36:17;9.00;99.90
19200;DHT22;9732;52.498;5.408;2022-11-25T05:38:45;8.90;99.90
19200;DHT22;9732;52.498;5.408;2022-11-25T05:41:13;8.90;99.90
19200;DHT22;9732;52.498;5.408;2022-11-25T05:43:41;8.90;99.90
19200;DHT22;9732;52.498;5.408;2022-11-25T05:46:10;8.90;99.90
19200;DHT22;9732;52.498;5.408;2022-11-25T05:48:38;8.80;99.90
19200;DHT22;9732;52.498;5.408;2022-11-25T05:51:05;8.80;99.90
19200;DHT22;9732;52.498;5.408;2022-11-25T05:53:34;8.80;99.90
19200;DHT22;9732;52.498;5.408;2022-11-25T05:56:03;8.80;99.90
19200;DHT22;9732;52.498;5.408;2022-11-25T05:58:30;8.80;99.90
19200;DHT22;9732;52.498;5.408;2022-11-25T06:00:58;8.80;99.90
19200;DHT22;9732;52.498;5.408;2022-11-25T06:03:27;8.70;99.90
19200;DHT22;9732;52.498;5.408;2022-11-25T06:05:54;8.80;99.90
19200;DHT22;9732;52.498;5.408;2022-11-25T06:08:21;8.80;99.90
19200;DHT22;9732;52.498;5.408;2022-11-25T06:10:48;8.70;99.90
19200;DHT22;9732;52.498;5.408;2022-11-25T06:13:15;8.70;99.90
19200;DHT22;9732;52.498;5.408;2022-11-25T06:15:42;8.70;99.90
19200;DHT22;9732;52.498;5.408;2022-11-25T06:18:10;8.70;99.90
19200;DHT22;9732;52.498;5.408;2022-11-25T06:20:39;8.70;99.90
19200;DHT22;9732;52.498;5.408;2022-11-25T06:23:06;8.70;99.90
19200;DHT22;9732;52.498;5.408;2022-11-25T06:25:33;8.70;99.90
19200;DHT22;9732;52.498;5.408;2022-11-25T06:28:00;8.60;99.90
19200;DHT22;9732;52.498;5.408;2022-11-25T06:30:28;8.60;99.90
19200;DHT22;9732;52.498;5.408;2022-11-25T06:32:55;8.60;99.90
19200;DHT22;9732;52.498;5.408;2022-11-25T06:35:21;8.60;99.90
19200;DHT22;9732;52.498;5.408;2022-11-25T06:37:49;8.60;99.90
19200;DHT22;9732;52.498;5.408;2022-11-25T06:40:17;8.60;99.90
19200;DHT22;9732;52.498;5.408;2022-11-25T06:42:44;8.60;99.90
19200;DHT22;9732;52.498;5.408;2022-11-25T06:45:10;8.60;99.90
19200;DHT22;9732;52.498;5.408;2022-11-25T06:47:37;8.60;99.90
19200;DHT22;9732;52.498;5.408;2022-11-25T06:50:05;8.60;99.90
19200;DHT22;9732;52.498;5.408;2022-11-25T06:52:32;8.50;99.90
19200;DHT22;9732;52.498;5.408;2022-11-25T06:55:00;8.60;99.90
19200;DHT22;9732;52.498;5.408;2022-11-25T06:57:27;8.50;99.90
19200;DHT22;9732;52.498;5.408;2022-11-25T06:59:54;8.50;99.90
19200;DHT22;9732;52.498;5.408;2022-11-25T07:02:20;8.50;99.90
19200;DHT22;9732;52.498;5.408;2022-11-25T07:04:47;8.50;99.90
19200;DHT22;9732;52.498;5.408;2022-11-25T07:07:14;8.50;99.90
19200;DHT22;9732;52.498;5.408;2022-11-25T07:09:41;8.50;99.90
19200;DHT22;9732;52.498;5.408;2022-11-25T07:12:09;8.50;99.90
19200;DHT22;9732;52.498;5.408;2022-11-25T07:14:36;8.50;99.90
19200;DHT22;9732;52.498;5.408;2022-11-25T07:17:03;8.50;99.90
19200;DHT22;9732;52.498;5.408;2022-11-25T07:19:30;8.50;99.90
19200;DHT22;9732;52.498;5.408;2022-11-25T07:22:00;8.50;99.90
19200;DHT22;9732;52.498;5.408;2022-11-25T07:24:27;8.50;99.90
19200;DHT22;9732;52.498;5.408;2022-11-25T07:26:53;8.40;99.90
19200;DHT22;9732;52.498;5.408;2022-11-25T07:29:21;8.50;99.90
19200;DHT22;9732;52.498;5.408;2022-11-25T07:31:49;8.40;99.90
19200;DHT22;9732;52.498;5.408;2022-11-25T07:34:18;8.40;99.90
19200;DHT22;9732;52.498;5.408;2022-11-25T07:36:46;8.50;99.90
19200;DHT22;9732;52.498;5.408;2022-11-25T07:39:15;8.50;99.90
19200;DHT22;9732;52.498;5.408;2022-11-25T07:41:42;8.50;99.90
19200;DHT22;9732;52.498;5.408;2022-11-25T07:44:10;8.50;99.90
19200;DHT22;9732;52.498;5.408;2022-11-25T07:46:40;8.50;99.90
19200;DHT22;9732;52.498;5.408;2022-11-25T07:49:10;8.50;99.90
19200;DHT22;9732;52.498;5.408;2022-11-25T07:51:38;8.50;99.90
19200;DHT22;9732;52.498;5.408;2022-11-25T07:54:07;8.50;99.90
19200;DHT22;9732;52.498;5.408;2022-11-25T07:56:36;8.50;99.90
19200;DHT22;9732;52.498;5.408;2022-11-25T07:59:04;8.50;99.90
19200;DHT22;9732;52.498;5.408;2022-11-25T08:01:31;8.40;99.90
19200;DHT22;9732;52.498;5.408;2022-11-25T08:03:59;8.40;99.90
19200;DHT22;9732;52.498;5.408;2022-11-25T08:06:27;8.40;99.90
19200;DHT22;9732;52.498;5.408;2022-11-25T08:08:54;8.40;99.90
19200;DHT22;9732;52.498;5.408;2022-11-25T08:11:23;8.40;99.90
19200;DHT22;9732;52.498;5.408;2022-11-25T08:13:51;8.50;99.90
19200;DHT22;9732;52.498;5.408;2022-11-25T08:16:19;8.50;99.90
19200;DHT22;9732;52.498;5.408;2022-11-25T08:18:47;8.50;99.90
19200;DHT22;9732;52.498;5.408;2022-11-25T08:21:16;8.50;99.90
19200;DHT22;9732;52.498;5.408;2022-11-25T08:23:44;8.50;99.90
19200;DHT22;9732;52.498;5.408;2022-11-25T08:26:14;8.50;99.90
19200;DHT22;9732;52.498;5.408;2022-11-25T08:28:42;8.50;99.90
19200;DHT22;9732;52.498;5.408;2022-11-25T08:31:12;8.60;99.90
19200;DHT22;9732;52.498;5.408;2022-11-25T08:33:40;8.60;99.90
19200;DHT22;9732;52.498;5.408;2022-11-25T08:36:09;8.60;99.90
19200;DHT22;9732;52.498;5.408;2022-11-25T08:38:39;8.70;99.90
19200;DHT22;9732;52.498;5.408;2022-11-25T08:41:09;8.70;99.90
19200;DHT22;9732;52.498;5.408;2022-11-25T08:43:36;8.70;99.90
19200;DHT22;9732;52.498;5.408;2022-11-25T08:46:07;8.80;99.90
19200;DHT22;9732;52.498;5.408;2022-11-25T08:48:34;8.80;99.90
19200;DHT22;9732;52.498;5.408;2022-11-25T08:51:01;8.90;99.90
19200;DHT22;9732;52.498;5.408;2022-11-25T08:53:27;8.90;99.90
19200;DHT22;9732;52.498;5.408;2022-11-25T08:55:56;9.00;99.90
19200;DHT22;9732;52.498;5.408;2022-11-25T08:58:22;9.10;99.90
19200;DHT22;9732;52.498;5.408;2022-11-25T09:00:49;9.10;99.90
19200;DHT22;9732;52.498;5.408;2022-11-25T09:03:16;9.20;99.90
19200;DHT22;9732;52.498;5.408;2022-11-25T09:05:43;9.30;99.90
19200;DHT22;9732;52.498;5.408;2022-11-25T09:08:10;9.40;99.90
19200;DHT22;9732;52.498;5.408;2022-11-25T09:10:38;9.50;99.90
19200;DHT22;9732;52.498;5.408;2022-11-25T09:13:06;9.50;99.90
19200;DHT22;9732;52.498;5.408;2022-11-25T09:15:35;9.60;99.90
19200;DHT22;9732;52.498;5.408;2022-11-25T09:18:04;9.70;99.90
19200;DHT22;9732;52.498;5.408;2022-11-25T09:20:31;9.80;99.90
19200;DHT22;9732;52.498;5.408;2022-11-25T09:22:58;9.80;99.90
19200;DHT22;9732;52.498;5.408;2022-11-25T09:25:25;9.80;99.90
19200;DHT22;9732;52.498;5.408;2022-11-25T09:27:52;9.90;99.90
19200;DHT22;9732;52.498;5.408;2022-11-25T09:30:21;9.90;99.90
19200;DHT22;9732;52.498;5.408;2022-11-25T09:32:49;9.90;99.90
19200;DHT22;9732;52.498;5.408;2022-11-25T09:35:16;9.90;99.90
19200;DHT22;9732;52.498;5.408;2022-11-25T09:37:43;9.90;99.90
19200;DHT22;9732;52.498;5.408;2022-11-25T09:40:17;9.90;99.90
19200;DHT22;9732;52.498;5.408;2022-11-25T09:42:50;9.80;99.90
19200;DHT22;9732;52.498;5.408;2022-11-25T09:45:46;9.80;99.90
19200;DHT22;9732;52.498;5.408;2022-11-25T09:48:43;9.80;99.90
19200;DHT22;9732;52.498;5.408;2022-11-25T09:51:18;9.80;99.90
19200;DHT22;9732;52.498;5.408;2022-11-25T09:53:47;9.90;99.90
19200;DHT22;9732;52.498;5.408;2022-11-25T09:56:25;9.80;99.90
19200;DHT22;9732;52.498;5.408;2022-11-25T09:58:58;9.90;99.90
19200;DHT22;9732;52.498;5.408;2022-11-25T10:01:29;9.90;99.90
19200;DHT22;9732;52.498;5.408;2022-11-25T10:04:00;9.90;99.90
19200;DHT22;9732;52.498;5.408;2022-11-25T10:06:31;10.00;99.90
19200;DHT22;9732;52.498;5.408;2022-11-25T10:09:00;9.90;99.90
19200;DHT22;9732;52.498;5.408;2022-11-25T10:11:37;9.80;99.90
19200;DHT22;9732;52.498;5.408;2022-11-25T10:14:16;9.80;99.90
19200;DHT22;9732;52.498;5.408;2022-11-25T10:16:49;9.80;99.90
19200;DHT22;9732;52.498;5.408;2022-11-25T10:19:23;9.80;99.90
19200;DHT22;9732;52.498;5.408;2022-11-25T10:21:51;9.80;99.90
19200;DHT22;9732;52.498;5.408;2022-11-25T10:24:19;9.90;99.90
19200;DHT22;9732;52.498;5.408;2022-11-25T10:26:51;9.90;99.90
19200;DHT22;9732;52.498;5.408;2022-11-25T10:29:23;9.80;99.90
19200;DHT22;9732;52.498;5.408;2022-11-25T10:31:56;9.90;99.90
19200;DHT22;9732;52.498;5.408;2022-11-25T10:34:30;9.90;99.90
19200;DHT22;9732;52.498;5.408;2022-11-25T10:37:01;9.90;99.90
19200;DHT22;9732;52.498;5.408;2022-11-25T10:39:33;9.90;99.90
19200;DHT22;9732;52.498;5.408;2022-11-25T10:42:03;9.90;99.90
19200;DHT22;9732;52.498;5.408;2022-11-25T10:44:34;9.90;99.90
19200;DHT22;9732;52.498;5.408;2022-11-25T10:47:14;10.00;99.90
19200;DHT22;9732;52.498;5.408;2022-11-25T10:49:56;10.00;99.90
19200;DHT22;9732;52.498;5.408;2022-11-25T10:52:28;10.00;99.90
19200;DHT22;9732;52.498;5.408;2022-11-25T10:55:07;10.10;99.90
19200;DHT22;9732;52.498;5.408;2022-11-25T10:57:34;10.00;99.90
19200;DHT22;9732;52.498;5.408;2022-11-25T11:00:03;10.00;99.90
19200;DHT22;9732;52.498;5.408;2022-11-25T11:02:38;10.10;99.90
19200;DHT22;9732;52.498;5.408;2022-11-25T11:05:18;10.10;99.90
19200;DHT22;9732;52.498;5.408;2022-11-25T11:08:07;10.10;99.90
19200;DHT22;9732;52.498;5.408;2022-11-25T11:10:35;10.10;99.90
19200;DHT22;9732;52.498;5.408;2022-11-25T11:13:05;10.20;99.90
19200;DHT22;9732;52.498;5.408;2022-11-25T11:15:43;10.20;99.90
19200;DHT22;9732;52.498;5.408;2022-11-25T11:18:23;10.20;99.90
19200;DHT22;9732;52.498;5.408;2022-11-25T11:20:53;10.20;99.90
19200;DHT22;9732;52.498;5.408;2022-11-25T11:23:21;10.20;99.90
19200;DHT22;9732;52.498;5.408;2022-11-25T11:25:56;10.30;99.90
19200;DHT22;9732;52.498;5.408;2022-11-25T11:28:25;10.30;99.90
19200;DHT22;9732;52.498;5.408;2022-11-25T11:30:55;10.40;99.90
19200;DHT22;9732;52.498;5.408;2022-11-25T11:33:35;10.40;99.90
19200;DHT22;9732;52.498;5.408;2022-11-25T11:36:14;10.50;99.90
19200;DHT22;9732;52.498;5.408;2022-11-25T11:38:49;10.50;99.90
19200;DHT22;9732;52.498;5.408;2022-11-25T11:41:25;10.50;99.90
19200;DHT22;9732;52.498;5.408;2022-11-25T11:44:07;10.50;99.90
19200;DHT22;9732;52.498;5.408;2022-11-25T11:46:46;10.50;99.90
19200;DHT22;9732;52.498;5.408;2022-11-25T11:49:32;10.60;99.90
19200;DHT22;9732;52.498;5.408;2022-11-25T11:52:04;10.70;99.90
19200;DHT22;9732;52.498;5.408;2022-11-25T11:54:37;10.80;99.90
19200;DHT22;9732;52.498;5.408;2022-11-25T11:57:09;10.80;99.90
19200;DHT22;9732;52.498;5.408;2022-11-25T11:59:55;11.00;99.90
19200;DHT22;9732;52.498;5.408;2022-11-25T12:02:30;11.10;99.90
19200;DHT22;9732;52.498;5.408;2022-11-25T12:05:11;11.20;99.90
19200;DHT22;9732;52.498;5.408;2022-11-25T12:07:45;11.20;99.90
19200;DHT22;9732;52.498;5.408;2022-11-25T12:10:17;11.30;99.90
19200;DHT22;9732;52.498;5.408;2022-11-25T12:12:51;11.30;99.90
19200;DHT22;9732;52.498;5.408;2022-11-25T12:15:21;11.40;99.90
19200;DHT22;9732;52.498;5.408;2022-11-25T12:17:53;11.60;99.90
19200;DHT22;9732;52.498;5.408;2022-11-25T12:20:32;11.70;99.90
19200;DHT22;9732;52.498;5.408;2022-11-25T12:23:06;11.90;99.90
19200;DHT22;9732;52.498;5.408;2022-11-25T12:25:37;11.90;99.90
19200;DHT22;9732;52.498;5.408;2022-11-25T12:28:07;12.00;99.90
19200;DHT22;9732;52.498;5.408;2022-11-25T12:30:39;12.00;99.90
19200;DHT22;9732;52.498;5.408;2022-11-25T12:33:11;11.90;99.90
19200;DHT22;9732;52.498;5.408;2022-11-25T12:35:51;12.00;99.90
19200;DHT22;9732;52.498;5.408;2022-11-25T12:38:26;12.00;99.90
19200;DHT22;9732;52.498;5.408;2022-11-25T12:41:01;12.00;99.90
19200;DHT22;9732;52.498;5.408;2022-11-25T12:43:37;12.00;99.90
19200;DHT22;9732;52.498;5.408;2022-11-25T12:46:12;12.00;99.90
19200;DHT22;9732;52.498;5.408;2022-11-25T12:48:41;12.10;99.90
19200;DHT22;9732;52.498;5.408;2022-11-25T12:51:18;12.10;99.90
19200;DHT22;9732;52.498;5.408;2022-11-25T12:53:56;12.10;99.90
19200;DHT22;9732;52.498;5.408;2022-11-25T12:56:33;12.20;99.90
19200;DHT22;9732;52.498;5.408;2022-11-25T12:59:21;12.20;99.90
19200;DHT22;9732;52.498;5.408;2022-11-25T13:02:00;12.10;99.90
19200;DHT22;9732;52.498;5.408;2022-11-25T13:04:54;12.10;99.90
19200;DHT22;9732;52.498;5.408;2022-11-25T13:07:27;12.00;99.90
19200;DHT22;9732;52.498;5.408;2022-11-25T13:10:16;12.10;99.90
19200;DHT22;9732;52.498;5.408;2022-11-25T13:12:54;12.10;99.90
19200;DHT22;9732;52.498;5.408;2022-11-25T13:15:27;12.00;99.90
19200;DHT22;9732;52.498;5.408;2022-11-25T13:17:58;11.90;99.90
19200;DHT22;9732;52.498;5.408;2022-11-25T13:20:44;11.80;99.90
19200;DHT22;9732;52.498;5.408;2022-11-25T13:23:42;11.80;99.90
19200;DHT22;9732;52.498;5.408;2022-11-25T13:29:59;11.60;99.90
19200;DHT22;9732;52.498;5.408;2022-11-25T13:32:38;11.50;99.90
19200;DHT22;9732;52.498;5.408;2022-11-25T13:35:34;11.40;99.90
19200;DHT22;9732;52.498;5.408;2022-11-25T13:40:55;11.40;99.90
19200;DHT22;9732;52.498;5.408;2022-11-25T13:43:22;11.30;99.90
19200;DHT22;9732;52.498;5.408;2022-11-25T13:45:49;11.20;99.90
19200;DHT22;9732;52.498;5.408;2022-11-25T13:48:18;11.10;99.90
19200;DHT22;9732;52.498;5.408;2022-11-25T13:50:46;11.10;99.90
19200;DHT22;9732;52.498;5.408;2022-11-25T13:53:20;11.10;99.90
19200;DHT22;9732;52.498;5.408;2022-11-25T13:55:50;11.00;99.90
19200;DHT22;9732;52.498;5.408;2022-11-25T13:58:22;11.00;99.90
19200;DHT22;9732;52.498;5.408;2022-11-25T14:01:00;10.90;99.90
19200;DHT22;9732;52.498;5.408;2022-11-25T14:03:43;10.80;99.90
19200;DHT22;9732;52.498;5.408;2022-11-25T14:06:27;10.80;99.90
19200;DHT22;9732;52.498;5.408;2022-11-25T14:09:01;10.70;99.90
19200;DHT22;9732;52.498;5.408;2022-11-25T14:14:40;10.70;99.90
19200;DHT22;9732;52.498;5.408;2022-11-25T14:17:23;10.70;99.90
19200;DHT22;9732;52.498;5.408;2022-11-25T14:20:17;10.70;99.90
19200;DHT22;9732;52.498;5.408;2022-11-25T14:23:19;10.60;99.90
19200;DHT22;9732;52.498;5.408;2022-11-25T14:25:52;10.60;99.90
19200;DHT22;9732;52.498;5.408;2022-11-25T14:28:28;10.60;99.90
19200;DHT22;9732;52.498;5.408;2022-11-25T14:31:02;10.60;99.90
19200;DHT22;9732;52.498;5.408;2022-11-25T14:33:33;10.60;99.90
19200;DHT22;9732;52.498;5.408;2022-11-25T14:36:06;10.50;99.90
19200;DHT22;9732;52.498;5.408;2022-11-25T14:38:42;10.40;99.90
19200;DHT22;9732;52.498;5.408;2022-11-25T14:41:15;10.30;99.90
19200;DHT22;9732;52.498;5.408;2022-11-25T14:43:47;10.30;99.90
19200;DHT22;9732;52.498;5.408;2022-11-25T14:46:19;10.20;99.90
19200;DHT22;9732;52.498;5.408;2022-11-25T14:48:52;10.20;99.90
19200;DHT22;9732;52.498;5.408;2022-11-25T14:51:20;10.20;99.90
19200;DHT22;9732;52.498;5.408;2022-11-25T14:53:48;10.20;99.90
19200;DHT22;9732;52.498;5.408;2022-11-25T14:56:23;10.20;99.90
19200;DHT22;9732;52.498;5.408;2022-11-25T14:58:53;10.20;99.90
19200;DHT22;9732;52.498;5.408;2022-11-25T15:01:22;10.20;99.90
19200;DHT22;9732;52.498;5.408;2022-11-25T15:03:54;10.10;99.90
19200;DHT22;9732;52.498;5.408;2022-11-25T15:06:28;10.10;99.90
19200;DHT22;9732;52.498;5.408;2022-11-25T15:08:58;10.10;99.90
19200;DHT22;9732;52.498;5.408;2022-11-25T15:11:27;10.10;99.90
19200;DHT22;9732;52.498;5.408;2022-11-25T15:13:58;10.00;99.90
19200;DHT22;9732;52.498;5.408;2022-11-25T15:16:30;10.00;99.90
19200;DHT22;9732;52.498;5.408;2022-11-25T15:18:59;10.00;99.90
19200;DHT22;9732;52.498;5.408;2022-11-25T15:21:29;9.90;99.90
19200;DHT22;9732;52.498;5.408;2022-11-25T15:23:57;9.90;99.90
19200;DHT22;9732;52.498;5.408;2022-11-25T15:26:26;9.90;99.90
19200;DHT22;9732;52.498;5.408;2022-11-25T15:28:54;9.80;99.90
19200;DHT22;9732;52.498;5.408;2022-11-25T15:31:26;9.80;99.90
19200;DHT22;9732;52.498;5.408;2022-11-25T15:33:57;9.80;99.90
19200;DHT22;9732;52.498;5.408;2022-11-25T15:36:25;9.80;99.90
19200;DHT22;9732;52.498;5.408;2022-11-25T15:38:52;9.80;99.90
19200;DHT22;9732;52.498;5.408;2022-11-25T15:41:26;9.80;99.90
19200;DHT22;9732;52.498;5.408;2022-11-25T15:43:57;9.70;99.90
19200;DHT22;9732;52.498;5.408;2022-11-25T15:46:26;9.70;99.90
19200;DHT22;9732;52.498;5.408;2022-11-25T15:48:56;9.70;99.90
19200;DHT22;9732;52.498;5.408;2022-11-25T15:51:34;9.70;99.90
19200;DHT22;9732;52.498;5.408;2022-11-25T15:54:05;9.60;99.90
19200;DHT22;9732;52.498;5.408;2022-11-25T15:56:36;9.60;99.90
19200;DHT22;9732;52.498;5.408;2022-11-25T15:59:04;9.60;99.90
19200;DHT22;9732;52.498;5.408;2022-11-25T16:01:30;9.50;99.90
19200;DHT22;9732;52.498;5.408;2022-11-25T16:04:18;9.50;99.90
19200;DHT22;9732;52.498;5.408;2022-11-25T16:06:53;9.50;99.90
19200;DHT22;9732;52.498;5.408;2022-11-25T16:09:22;9.50;99.90
19200;DHT22;9732;52.498;5.408;2022-11-25T16:11:49;9.50;99.90
19200;DHT22;9732;52.498;5.408;2022-11-25T16:14:17;9.50;99.90
19200;DHT22;9732;52.498;5.408;2022-11-25T16:16:48;9.50;99.90
19200;DHT22;9732;52.498;5.408;2022-11-25T16:19:18;9.40;99.90
19200;DHT22;9732;52.498;5.408;2022-11-25T16:21:59;9.40;99.90
19200;DHT22;9732;52.498;5.408;2022-11-25T16:24:37;9.40;99.90
19200;DHT22;9732;52.498;5.408;2022-11-25T16:27:12;9.40;99.90
19200;DHT22;9732;52.498;5.408;2022-11-25T16:29:48;9.40;99.90
19200;DHT22;9732;52.498;5.408;2022-11-25T16:32:19;9.40;99.90